sim
Sign-in with your pilot id or email,
or register
Callsign
Passwort

Schedule Details

Flight Number: DLH2081 (1)
Departure: Hamburg Airport (EDDH) at 19:50
Arrival: Munich Airport (EDDM) at 21:05
Route: Lufthansa Passenger Schedule. Enter filed route here before submitting Pirep.

Weather Information
Getting current METAR information for EDDH 240020Z 14007KT CAVOK 16/11 Q0999 NOSIG
Getting current METAR information for EDDM 240020Z 24001KT 9999 R26R/1100D NSC 12/11 Q1009 NOSIG

Schedule Frequency

Route Map